Time;durP1;ratioP1;P1;durP2;ratioP2;P2;SDS_P1;SDS_P2;PMS_P1;PMS_P2;Temp;Humidity;BMP_temperature;BMP_pressure;BME280_temperature;BME280_humidity;BME280_pressure;Samples;Min_cycle;Max_cycle;Signal;HPM_P1;HPM_P2
2022/10/01 00:01:00;;;;;;;10.43;9.43;;;11.00;99.90;;;;;;5047887;28;20040;-68
2022/10/01 00:03:27;;;;;;;10.00;9.00;;;11.00;99.90;;;;;;5049245;28;20064;-68
2022/10/01 00:06:16;;;;;;;10.20;9.07;;;10.90;99.90;;;;;;5046273;28;20106;-68
2022/10/01 00:08:45;;;;;;;10.57;9.35;;;10.90;99.90;;;;;;5044069;28;20324;-68
2022/10/01 00:11:17;;;;;;;12.65;9.80;;;10.90;99.90;;;;;;5064183;28;20049;-68
2022/10/01 00:13:43;;;;;;;11.48;10.27;;;10.90;99.90;;;;;;5049241;28;20048;-68
2022/10/01 00:16:12;;;;;;;12.00;10.63;;;10.90;99.90;;;;;;5051324;28;20500;-68
2022/10/01 00:18:40;;;;;;;11.63;10.43;;;10.80;99.90;;;;;;5039471;28;20060;-68
2022/10/01 00:21:14;;;;;;;11.18;10.05;;;10.80;99.90;;;;;;5048634;28;20051;-68
2022/10/01 00:23:41;;;;;;;11.35;10.10;;;10.80;99.90;;;;;;5043562;28;20052;-67
2022/10/01 00:26:19;;;;;;;12.13;10.80;;;10.80;99.90;;;;;;5043874;28;20108;-67
2022/10/01 00:28:47;;;;;;;11.43;10.05;;;10.80;99.90;;;;;;5039047;28;20120;-67
2022/10/01 00:31:14;;;;;;;12.18;9.98;;;10.80;99.90;;;;;;5044887;28;20531;-67
2022/10/01 00:33:40;;;;;;;13.45;11.00;;;10.80;99.90;;;;;;5042471;28;20059;-67
2022/10/01 00:36:08;;;;;;;11.45;10.35;;;10.80;99.90;;;;;;5043816;28;20056;-67
2022/10/01 00:38:35;;;;;;;12.82;11.05;;;10.80;99.90;;;;;;5040851;28;20111;-67
2022/10/01 00:41:02;;;;;;;11.70;10.05;;;10.80;99.90;;;;;;5026163;28;20051;-67
2022/10/01 00:43:31;;;;;;;12.02;10.75;;;10.80;99.90;;;;;;5045651;28;20033;-67
2022/10/01 00:46:03;;;;;;;13.95;11.05;;;10.80;99.90;;;;;;5039148;28;20045;-67
2022/10/01 00:48:33;;;;;;;11.88;9.82;;;10.80;99.90;;;;;;5038206;28;20052;-68
2022/10/01 00:50:59;;;;;;;11.48;10.02;;;10.70;99.90;;;;;;5041654;28;20056;-67
2022/10/01 00:53:26;;;;;;;14.52;10.85;;;10.70;99.90;;;;;;5043986;28;20049;-67
2022/10/01 00:55:55;;;;;;;12.30;10.80;;;10.70;99.90;;;;;;5038518;28;20056;-67
2022/10/01 00:58:23;;;;;;;15.45;11.27;;;10.70;99.90;;;;;;5042115;28;20116;-67
2022/10/01 01:00:50;;;;;;;11.57;10.38;;;10.70;99.90;;;;;;5047006;28;20041;-67
2022/10/01 01:03:16;;;;;;;13.38;11.60;;;10.70;99.90;;;;;;5031952;28;20610;-68
2022/10/01 01:05:42;;;;;;;19.50;12.80;;;10.70;99.90;;;;;;5046029;28;20045;-68
2022/10/01 01:08:09;;;;;;;13.15;11.75;;;10.70;99.90;;;;;;5047614;28;20049;-68
2022/10/01 01:10:50;;;;;;;13.70;10.80;;;10.70;99.90;;;;;;5051059;28;20049;-68
2022/10/01 01:13:39;;;;;;;12.27;10.63;;;10.70;99.90;;;;;;5047618;28;20037;-68
2022/10/01 01:16:18;;;;;;;11.93;10.60;;;10.60;99.90;;;;;;5048763;28;20124;-68
2022/10/01 01:19:03;;;;;;;14.65;11.43;;;10.60;99.90;;;;;;5044428;28;20045;-67
2022/10/01 01:21:44;;;;;;;13.02;11.68;;;10.60;99.90;;;;;;5022631;28;20504;-67
2022/10/01 01:24:31;;;;;;;13.65;11.18;;;10.60;99.90;;;;;;5045805;28;20044;-67
2022/10/01 01:27:25;;;;;;;12.75;10.40;;;10.60;99.90;;;;;;5039292;28;20076;-67
2022/10/01 01:30:00;;;;;;;12.70;11.23;;;10.60;99.90;;;;;;5024622;28;20501;-68
2022/10/01 01:32:55;;;;;;;12.70;10.57;;;10.60;99.90;;;;;;5042604;28;20495;-68
2022/10/01 01:35:30;;;;;;;;;;;10.60;99.90;;;;;;5016426;28;20149;-68
2022/10/01 01:38:09;;;;;;;11.52;10.05;;;10.60;99.90;;;;;;5032673;28;19955;-68
2022/10/01 01:40:36;;;;;;;12.70;11.13;;;10.50;99.90;;;;;;5048426;28;20062;-68
2022/10/01 01:43:06;;;;;;;15.10;11.60;;;10.50;99.90;;;;;;5046942;28;20126;-68
2022/10/01 01:45:34;;;;;;;16.17;11.82;;;10.60;99.90;;;;;;5043530;28;20045;-68
2022/10/01 01:48:01;;;;;;;12.35;11.05;;;10.50;99.90;;;;;;5044499;28;20102;-68
2022/10/01 01:50:33;;;;;;;12.43;11.13;;;10.60;99.90;;;;;;5049064;28;20048;-68
2022/10/01 01:52:59;;;;;;;12.30;11.05;;;10.60;99.90;;;;;;5045226;28;20049;-68
2022/10/01 01:55:28;;;;;;;11.70;9.88;;;10.50;99.90;;;;;;5047583;28;20049;-68
2022/10/01 01:57:56;;;;;;;13.30;11.75;;;10.50;99.90;;;;;;5046539;28;20552;-68
2022/10/01 02:00:22;;;;;;;11.63;10.07;;;10.50;99.90;;;;;;5048217;28;20037;-67
2022/10/01 02:02:50;;;;;;;13.80;11.02;;;10.50;99.90;;;;;;5040215;28;20048;-67
2022/10/01 02:05:21;;;;;;;17.55;12.48;;;10.60;99.90;;;;;;5046466;28;20055;-68
2022/10/01 02:08:26;;;;;;;12.45;10.98;;;10.60;99.90;;;;;;5042123;28;20080;-67
2022/10/01 02:10:52;;;;;;;12.15;10.85;;;10.60;99.90;;;;;;4990909;28;20061;-68
2022/10/01 02:13:22;;;;;;;14.15;11.40;;;10.60;99.90;;;;;;5042840;28;20052;-68
2022/10/01 02:16:17;;;;;;;11.63;10.50;;;10.60;99.90;;;;;;5048845;28;20105;-68
2022/10/01 02:19:05;;;;;;;14.43;9.75;;;10.60;99.90;;;;;;5046773;28;20449;-68
2022/10/01 02:21:47;;;;;;;13.15;10.50;;;10.60;99.90;;;;;;5044643;28;20049;-68
2022/10/01 02:24:31;;;;;;;12.40;10.27;;;10.60;99.90;;;;;;5051651;28;20450;-68
2022/10/01 02:27:02;;;;;;;12.07;10.63;;;10.60;99.90;;;;;;5047693;28;20036;-68
2022/10/01 02:29:29;;;;;;;10.50;9.40;;;10.60;99.90;;;;;;5040445;28;20041;-68
2022/10/01 02:31:56;;;;;;;10.50;9.38;;;10.60;99.90;;;;;;5038522;28;20050;-67
2022/10/01 02:34:27;;;;;;;9.98;8.48;;;10.60;99.90;;;;;;5040092;28;20047;-66
2022/10/01 02:36:55;;;;;;;9.50;8.50;;;10.60;99.90;;;;;;5042212;28;20497;-66
2022/10/01 02:39:22;;;;;;;9.43;8.25;;;10.60;99.90;;;;;;5043486;28;20120;-66
2022/10/01 02:41:50;;;;;;;9.77;8.05;;;10.60;99.90;;;;;;5029700;28;20040;-65
2022/10/01 02:44:38;;;;;;;9.63;8.05;;;10.60;99.90;;;;;;5038617;28;20040;-65
2022/10/01 02:47:16;;;;;;;8.98;8.02;;;10.60;99.90;;;;;;5041387;28;20033;-65
2022/10/01 02:49:42;;;;;;;9.45;7.55;;;10.60;99.90;;;;;;5034810;28;20572;-65
2022/10/01 02:52:18;;;;;;;7.40;6.70;;;10.60;99.90;;;;;;5040919;28;20116;-65
2022/10/01 02:54:59;;;;;;;7.30;6.60;;;10.60;99.90;;;;;;5039576;28;20029;-66
2022/10/01 02:57:26;;;;;;;9.95;8.00;;;10.70;99.90;;;;;;5037423;28;20054;-66
2022/10/01 02:59:57;;;;;;;7.13;6.43;;;10.70;99.90;;;;;;5027237;28;20569;-65
2022/10/01 03:02:26;;;;;;;9.48;6.85;;;10.70;99.90;;;;;;5043684;28;20116;-66
2022/10/01 03:04:53;;;;;;;10.40;7.13;;;10.70;99.90;;;;;;5037468;28;20047;-66
2022/10/01 03:07:19;;;;;;;7.63;6.30;;;10.70;99.90;;;;;;5040859;28;20049;-65
2022/10/01 03:09:45;;;;;;;7.65;6.45;;;10.70;99.90;;;;;;5034459;28;20516;-66
2022/10/01 03:12:11;;;;;;;7.43;6.30;;;10.70;99.90;;;;;;5038115;28;20099;-65
2022/10/01 03:14:38;;;;;;;8.13;6.30;;;10.70;99.90;;;;;;5038851;28;20060;-65
2022/10/01 03:17:05;;;;;;;9.63;6.38;;;10.80;99.90;;;;;;5040122;28;20575;-65
2022/10/01 03:19:31;;;;;;;7.20;5.88;;;10.80;99.90;;;;;;5037944;28;20397;-66
2022/10/01 03:21:57;;;;;;;8.55;6.57;;;10.80;99.90;;;;;;5042411;28;20041;-66
2022/10/01 03:24:22;;;;;;;6.68;5.90;;;10.80;99.90;;;;;;5036763;28;20347;-66
2022/10/01 03:26:49;;;;;;;6.88;5.10;;;10.80;99.90;;;;;;5042296;28;20473;-66
2022/10/01 03:29:15;;;;;;;5.78;5.15;;;10.80;99.90;;;;;;5037888;28;20047;-66
2022/10/01 03:31:40;;;;;;;6.57;4.97;;;10.80;99.90;;;;;;5037560;28;20131;-66
2022/10/01 03:34:06;;;;;;;6.93;5.20;;;10.80;99.90;;;;;;5038281;28;20053;-67
2022/10/01 03:36:32;;;;;;;5.60;4.70;;;10.80;99.90;;;;;;5038294;28;20033;-67
2022/10/01 03:38:58;;;;;;;6.20;4.50;;;10.80;99.90;;;;;;5036018;28;20496;-66
2022/10/01 03:41:23;;;;;;;6.25;4.25;;;10.80;99.90;;;;;;5036692;28;20042;-67
2022/10/01 03:43:49;;;;;;;5.13;3.97;;;10.80;99.90;;;;;;5041269;28;20037;-66
2022/10/01 03:46:15;;;;;;;5.88;4.30;;;10.90;99.90;;;;;;5039843;28;20392;-67
2022/10/01 03:48:40;;;;;;;5.32;4.03;;;10.80;99.90;;;;;;5032794;28;20171;-67
2022/10/01 03:51:06;;;;;;;6.13;4.03;;;10.80;99.90;;;;;;5037012;28;20470;-67
2022/10/01 03:53:32;;;;;;;5.68;3.30;;;10.90;99.90;;;;;;5042189;28;20068;-67
2022/10/01 03:55:58;;;;;;;6.22;4.40;;;10.90;99.90;;;;;;5038456;28;20064;-67
2022/10/01 03:58:25;;;;;;;4.70;3.85;;;10.90;99.90;;;;;;5037052;28;20485;-67
2022/10/01 04:00:51;;;;;;;5.60;3.40;;;10.90;99.90;;;;;;5038219;28;20033;-67
2022/10/01 04:03:17;;;;;;;5.50;4.25;;;10.90;99.90;;;;;;5042026;28;20102;-68
2022/10/01 04:05:44;;;;;;;4.75;4.07;;;10.90;99.90;;;;;;5037997;28;20049;-68
2022/10/01 04:08:11;;;;;;;7.75;4.10;;;10.90;99.90;;;;;;5040367;28;20053;-68
2022/10/01 04:10:36;;;;;;;6.85;4.30;;;10.90;99.90;;;;;;5045982;28;20356;-68
2022/10/01 04:13:03;;;;;;;4.90;3.78;;;10.90;99.90;;;;;;5042856;28;20033;-67
2022/10/01 04:15:29;;;;;;;5.47;4.18;;;10.90;99.90;;;;;;5041982;28;20102;-67
2022/10/01 04:17:55;;;;;;;8.15;3.90;;;10.90;99.90;;;;;;5037671;28;20095;-67
2022/10/01 04:20:21;;;;;;;5.18;3.67;;;11.00;99.90;;;;;;5046364;28;20489;-68
2022/10/01 04:22:47;;;;;;;5.50;4.25;;;11.00;99.90;;;;;;5043046;28;20041;-67
2022/10/01 04:25:13;;;;;;;4.45;3.90;;;10.90;99.90;;;;;;5040425;28;20046;-67
2022/10/01 04:27:40;;;;;;;3.80;3.38;;;10.90;99.90;;;;;;5042175;28;20377;-67
2022/10/01 04:30:07;;;;;;;3.20;2.67;;;11.00;99.90;;;;;;5040327;28;20052;-67
2022/10/01 04:32:33;;;;;;;3.55;2.83;;;11.00;99.90;;;;;;5040082;28;20445;-67
2022/10/01 04:34:59;;;;;;;4.18;3.03;;;11.00;99.90;;;;;;5034689;28;20048;-67
2022/10/01 04:37:28;;;;;;;6.75;3.88;;;11.00;99.90;;;;;;5046318;28;20107;-67
2022/10/01 04:39:54;;;;;;;3.72;3.05;;;11.00;99.90;;;;;;5044733;28;20117;-68
2022/10/01 04:42:20;;;;;;;6.60;3.50;;;11.10;99.90;;;;;;5040840;28;20128;-67
2022/10/01 04:44:46;;;;;;;4.85;3.42;;;11.00;99.90;;;;;;5038605;28;20056;-67
2022/10/01 04:47:12;;;;;;;7.45;4.38;;;11.10;99.90;;;;;;5041878;28;20037;-67
2022/10/01 04:49:38;;;;;;;4.63;3.88;;;11.10;99.90;;;;;;5040022;28;20119;-67
2022/10/01 04:52:04;;;;;;;4.75;3.95;;;11.10;99.90;;;;;;5039685;28;20048;-67
2022/10/01 04:54:30;;;;;;;3.80;3.20;;;11.10;99.90;;;;;;5038485;28;20033;-67
2022/10/01 04:56:57;;;;;;;3.88;3.10;;;11.10;99.90;;;;;;5040690;28;20041;-67
2022/10/01 04:59:24;;;;;;;5.03;3.10;;;11.10;99.90;;;;;;5044902;28;20480;-67
2022/10/01 05:01:50;;;;;;;5.07;3.65;;;11.20;99.90;;;;;;5034590;28;20124;-67
2022/10/01 05:04:16;;;;;;;3.17;2.83;;;11.20;99.90;;;;;;5045001;28;20167;-67
2022/10/01 05:06:41;;;;;;;7.22;3.22;;;11.20;99.90;;;;;;5046812;28;20032;-67
2022/10/01 05:09:07;;;;;;;3.90;2.85;;;11.20;99.90;;;;;;5042804;28;20045;-67
2022/10/01 05:11:36;;;;;;;5.22;3.50;;;11.20;99.90;;;;;;5043302;28;20037;-67
2022/10/01 05:14:01;;;;;;;3.90;3.55;;;11.20;99.90;;;;;;5034245;28;20056;-66
2022/10/01 05:16:27;;;;;;;3.60;3.30;;;11.20;99.90;;;;;;5044218;28;20037;-67
2022/10/01 05:18:53;;;;;;;4.30;3.90;;;11.30;99.90;;;;;;5041534;28;20034;-66
2022/10/01 05:21:19;;;;;;;7.22;4.90;;;11.30;99.90;;;;;;5041662;28;20099;-67
2022/10/01 05:23:45;;;;;;;4.65;4.03;;;11.30;99.90;;;;;;5021819;28;20339;-67
2022/10/01 05:26:11;;;;;;;3.88;3.22;;;11.40;99.90;;;;;;5044480;28;20053;-66
2022/10/01 05:28:42;;;;;;;7.95;4.22;;;11.40;99.90;;;;;;5045987;28;20044;-66
2022/10/01 05:31:08;;;;;;;5.35;4.80;;;11.40;99.90;;;;;;5043332;28;20538;-66
2022/10/01 05:33:33;;;;;;;4.38;3.97;;;11.40;99.90;;;;;;5022861;28;20061;-67
2022/10/01 05:35:59;;;;;;;6.18;4.78;;;11.40;99.90;;;;;;5043434;28;20466;-66
2022/10/01 05:38:25;;;;;;;5.80;4.90;;;11.50;99.90;;;;;;5043335;28;20045;-66
2022/10/01 05:40:51;;;;;;;10.73;6.03;;;11.50;99.90;;;;;;5040619;28;20041;-66
2022/10/01 05:43:17;;;;;;;6.60;5.00;;;11.50;99.90;;;;;;5038160;28;20034;-66
2022/10/01 05:45:43;;;;;;;5.78;5.18;;;11.50;99.90;;;;;;5041484;28;20041;-66
2022/10/01 05:48:09;;;;;;;6.95;6.32;;;11.50;99.90;;;;;;5046003;28;20045;-66
2022/10/01 05:50:39;;;;;;;5.85;5.28;;;11.60;99.90;;;;;;5041559;28;20419;-66
2022/10/01 05:53:05;;;;;;;7.63;5.82;;;11.60;99.90;;;;;;5040187;28;20045;-66
2022/10/01 05:55:33;;;;;;;7.55;6.55;;;11.60;99.90;;;;;;5026431;28;20049;-66
2022/10/01 05:58:04;;;;;;;11.60;6.85;;;11.60;99.90;;;;;;5042320;28;20110;-66
2022/10/01 06:00:31;;;;;;;10.52;6.47;;;11.70;99.90;;;;;;5036293;28;20123;-66
2022/10/01 06:02:59;;;;;;;10.00;7.25;;;11.70;99.90;;;;;;5038631;28;20637;-66
2022/10/01 06:05:26;;;;;;;8.73;6.55;;;11.70;99.90;;;;;;5038229;28;20045;-66
2022/10/01 06:07:52;;;;;;;10.88;7.70;;;11.70;99.90;;;;;;5045032;28;20052;-66
2022/10/01 06:10:19;;;;;;;11.55;8.02;;;11.80;99.90;;;;;;5040483;28;20041;-66
2022/10/01 06:12:45;;;;;;;9.57;7.43;;;11.80;99.90;;;;;;5039863;28;20045;-66
2022/10/01 06:15:12;;;;;;;9.55;6.50;;;11.80;99.90;;;;;;5041948;28;20049;-66
2022/10/01 06:17:43;;;;;;;11.50;7.30;;;11.80;99.90;;;;;;5042304;28;20455;-67
2022/10/01 06:20:11;;;;;;;11.13;9.85;;;11.90;99.90;;;;;;5037469;28;20041;-66
2022/10/01 06:22:38;;;;;;;12.52;10.77;;;12.00;99.90;;;;;;5039237;28;20140;-66
2022/10/01 06:25:05;;;;;;;12.90;9.88;;;11.90;99.90;;;;;;5037963;28;20044;-66
2022/10/01 06:27:31;;;;;;;16.67;9.60;;;12.00;99.90;;;;;;5034709;28;20503;-66
2022/10/01 06:29:56;;;;;;;14.27;10.77;;;12.10;99.90;;;;;;5034816;28;20086;-66
2022/10/01 06:32:22;;;;;;;13.55;10.30;;;12.10;99.90;;;;;;5036393;28;20497;-66
2022/10/01 06:34:48;;;;;;;9.05;8.15;;;12.10;99.90;;;;;;5038572;28;20433;-67
2022/10/01 06:37:14;;;;;;;11.38;9.35;;;12.20;99.90;;;;;;5041639;28;20033;-66
2022/10/01 06:39:39;;;;;;;11.02;9.15;;;12.20;99.90;;;;;;5040152;28;20060;-67
2022/10/01 06:42:05;;;;;;;21.50;12.85;;;12.10;99.90;;;;;;5040734;28;20393;-66
2022/10/01 06:44:31;;;;;;;13.32;11.20;;;12.20;99.90;;;;;;5043224;28;20041;-66
2022/10/01 06:46:56;;;;;;;14.63;11.63;;;12.30;99.90;;;;;;5041522;28;20270;-66
2022/10/01 06:49:22;;;;;;;13.43;10.57;;;12.20;99.90;;;;;;5037969;28;20132;-66
2022/10/01 06:54:32;;;;;;;23.67;13.32;;;12.40;99.90;;;;;;5037009;28;20063;-66
2022/10/01 06:56:58;;;;;;;13.68;11.05;;;12.40;99.90;;;;;;5044247;28;20057;-66
2022/10/01 06:59:25;;;;;;;11.05;8.63;;;12.40;99.90;;;;;;5040616;28;20045;-66
2022/10/01 07:01:52;;;;;;;16.35;9.90;;;12.50;99.90;;;;;;5039401;28;20085;-66
2022/10/01 07:04:19;;;;;;;15.20;11.43;;;12.50;99.90;;;;;;5040246;28;20119;-65
2022/10/01 07:06:45;;;;;;;14.77;10.57;;;12.60;99.90;;;;;;5042870;28;20443;-66
2022/10/01 07:09:10;;;;;;;14.75;11.07;;;12.80;99.90;;;;;;5038479;28;20057;-65
2022/10/01 07:11:40;;;;;;;14.52;11.27;;;13.00;99.90;;;;;;5026610;28;20435;-66
2022/10/01 07:14:09;;;;;;;13.95;9.95;;;13.10;99.90;;;;;;5038284;28;20066;-65
2022/10/01 07:16:38;;;;;;;14.77;10.02;;;13.20;99.90;;;;;;5043848;28;20091;-66
2022/10/01 07:19:03;;;;;;;13.13;7.53;;;13.20;99.90;;;;;;5039233;28;20100;-66
2022/10/01 07:21:29;;;;;;;12.95;7.22;;;13.10;99.90;;;;;;5038763;28;20472;-65
2022/10/01 07:23:54;;;;;;;14.65;8.38;;;13.10;99.90;;;;;;5042928;28;20039;-66
2022/10/01 07:26:20;;;;;;;12.13;8.00;;;13.10;99.90;;;;;;5025730;28;20126;-66
2022/10/01 07:28:48;;;;;;;12.68;7.70;;;13.10;99.90;;;;;;5040909;28;20545;-66
2022/10/01 07:31:14;;;;;;;17.30;9.13;;;13.10;99.90;;;;;;5037081;28;20033;-66
2022/10/01 07:33:40;;;;;;;19.85;10.35;;;13.10;99.90;;;;;;5041337;28;20041;-66
2022/10/01 07:36:07;;;;;;;12.80;8.70;;;13.10;99.90;;;;;;5040736;28;20132;-65
2022/10/01 07:38:34;;;;;;;10.10;7.25;;;13.10;99.90;;;;;;5041213;28;20123;-66
2022/10/01 07:41:01;;;;;;;14.80;8.98;;;13.10;99.90;;;;;;5043546;28;20045;-65
2022/10/01 07:43:28;;;;;;;12.98;8.90;;;13.20;99.90;;;;;;5038710;28;20057;-66
2022/10/01 07:45:57;;;;;;;13.30;8.13;;;13.30;99.90;;;;;;5044779;28;20140;-65
2022/10/01 07:48:26;;;;;;;21.52;10.23;;;13.40;99.90;;;;;;5044309;28;20095;-66
2022/10/01 07:50:52;;;;;;;22.40;10.82;;;13.60;99.90;;;;;;5026629;28;20481;-65
2022/10/01 07:53:18;;;;;;;17.10;8.77;;;13.70;99.90;;;;;;5040434;28;20061;-65
2022/10/01 07:55:44;;;;;;;10.85;7.22;;;13.80;99.90;;;;;;5043354;28;20392;-66
2022/10/01 07:58:11;;;;;;;19.85;7.28;;;13.90;99.90;;;;;;5039932;28;20119;-66
2022/10/01 08:00:37;;;;;;;368.10;35.72;;;13.90;99.90;;;;;;5043080;28;20044;-66
2022/10/01 08:03:04;;;;;;;138.73;18.20;;;14.60;99.90;;;;;;5039147;28;20037;-66
2022/10/01 08:05:33;;;;;;;456.33;37.45;;;15.60;99.90;;;;;;5035640;28;20044;-66
2022/10/01 08:08:00;;;;;;;100.50;12.07;;;16.80;99.90;;;;;;5025428;28;20455;-65
2022/10/01 08:10:27;;;;;;;1397.82;105.57;;;17.70;99.90;;;;;;5040232;28;20064;-66
2022/10/01 08:13:07;;;;;;;901.75;76.63;;;18.40;99.90;;;;;;5043793;28;20056;-66
2022/10/01 08:15:34;;;;;;;114.55;10.20;;;19.10;99.90;;;;;;5041687;28;20052;-66
2022/10/01 08:18:01;;;;;;;109.05;10.98;;;19.40;99.90;;;;;;5039715;28;20625;-67
2022/10/01 08:20:27;;;;;;;123.63;9.85;;;19.90;99.90;;;;;;5038294;28;20119;-66
2022/10/01 08:22:53;;;;;;;106.63;8.73;;;20.50;99.90;;;;;;5042013;28;20040;-66
2022/10/01 08:25:19;;;;;;;11.43;2.20;;;20.90;99.90;;;;;;5040900;28;20041;-66
2022/10/01 08:27:44;;;;;;;9.43;1.42;;;21.40;99.90;;;;;;5045072;28;20473;-66
2022/10/01 08:30:10;;;;;;;12.95;1.60;;;21.70;99.90;;;;;;5039804;28;20412;-66
2022/10/01 08:32:36;;;;;;;15.55;2.17;;;22.00;99.90;;;;;;5041644;28;20488;-66
2022/10/01 08:35:03;;;;;;;17.10;2.47;;;22.30;99.90;;;;;;5036621;28;20024;-66
2022/10/01 08:37:29;;;;;;;26.25;3.15;;;22.50;99.90;;;;;;5045959;28;20507;-67
2022/10/01 08:39:55;;;;;;;28.83;3.63;;;22.70;99.90;;;;;;5043430;28;20037;-66
2022/10/01 08:42:58;;;;;;;12.38;2.30;;;22.90;99.90;;;;;;5039108;28;20048;-67
2022/10/01 08:45:41;;;;;;;15.20;1.85;;;23.00;99.90;;;;;;5022643;28;20811;-66
2022/10/01 08:48:30;;;;;;;8.50;1.63;;;23.30;99.90;;;;;;5044253;28;20040;-66
2022/10/01 08:51:03;;;;;;;6.25;1.27;;;23.60;99.90;;;;;;5039850;28;20173;-67
2022/10/01 08:53:41;;;;;;;8.57;1.73;;;23.30;99.90;;;;;;5038296;28;20044;-67
2022/10/01 08:56:20;;;;;;;5.90;1.13;;;22.40;99.90;;;;;;5039555;28;20079;-66
2022/10/01 08:59:10;;;;;;;9.07;1.58;;;21.50;99.90;;;;;;5043225;28;20106;-67
2022/10/01 09:01:36;;;;;;;10.48;1.75;;;20.40;99.90;;;;;;5029769;28;20427;-66
2022/10/01 09:04:03;;;;;;;8.93;1.48;;;19.40;99.90;;;;;;5038300;28;20033;-66
2022/10/01 09:06:29;;;;;;;7.57;1.23;;;18.70;99.90;;;;;;5035789;28;20723;-66
2022/10/01 09:09:08;;;;;;;8.88;1.63;;;18.20;99.90;;;;;;5037256;28;20049;-66
2022/10/01 09:12:02;;;;;;;12.52;1.80;;;17.80;99.90;;;;;;5034647;28;20129;-66
2022/10/01 09:14:53;;;;;;;7.87;1.70;;;17.50;99.90;;;;;;5041768;28;20597;-67
2022/10/01 09:17:36;;;;;;;7.60;1.33;;;17.90;99.90;;;;;;5038193;28;20398;-67
2022/10/01 09:20:09;;;;;;;7.07;1.30;;;19.20;99.90;;;;;;5040412;28;20470;-67
2022/10/01 09:22:38;;;;;;;7.65;1.17;;;20.30;99.90;;;;;;5039536;28;20056;-67
2022/10/01 09:25:18;;;;;;;4.28;1.20;;;21.00;99.90;;;;;;5040763;28;20053;-68
2022/10/01 09:27:43;;;;;;;5.05;1.00;;;21.10;99.90;;;;;;5040070;28;20056;-68
2022/10/01 09:30:22;;;;;;;4.80;1.00;;;21.50;99.90;;;;;;5042058;28;20038;-68
2022/10/01 09:33:28;;;;;;;3.95;0.80;;;21.40;99.90;;;;;;5035864;28;20033;-68
2022/10/01 09:36:11;;;;;;;3.35;0.93;;;21.30;99.90;;;;;;4980222;28;20418;-68
2022/10/01 09:38:41;;;;;;;3.47;0.57;;;22.20;99.90;;;;;;5037469;28;20077;-68
2022/10/01 09:41:09;;;;;;;6.32;0.85;;;23.00;99.90;;;;;;5038808;28;20549;-68
2022/10/01 09:43:39;;;;;;;4.38;0.70;;;23.50;99.90;;;;;;5041672;28;20041;-68
2022/10/01 09:46:12;;;;;;;4.50;0.60;;;22.60;99.90;;;;;;5036987;28;20065;-68
2022/10/01 09:49:00;;;;;;;3.45;0.95;;;21.50;99.90;;;;;;5046204;28;20520;-68
2022/10/01 09:51:54;;;;;;;2.70;0.55;;;20.40;99.90;;;;;;5026229;28;20061;-68
2022/10/01 09:54:42;;;;;;;8.07;2.03;;;19.40;99.90;;;;;;5044876;28;20048;-69
2022/10/01 09:57:09;;;;;;;4.97;0.77;;;18.40;99.90;;;;;;5037784;28;20427;-68
2022/10/01 09:59:46;;;;;;;6.88;0.80;;;17.60;99.90;;;;;;5039775;28;20044;-67
2022/10/01 10:02:23;;;;;;;6.20;0.98;;;17.00;99.90;;;;;;5036070;28;20150;-66
2022/10/01 10:05:06;;;;;;;5.38;1.05;;;16.50;99.90;;;;;;5040905;28;20036;-66
2022/10/01 10:07:33;;;;;;;5.57;0.93;;;16.00;99.90;;;;;;5038607;28;20167;-66
2022/10/01 10:10:38;;;;;;;3.95;0.80;;;15.70;99.90;;;;;;5041400;28;20060;-66
2022/10/01 10:13:09;;;;;;;5.17;0.80;;;16.30;99.90;;;;;;5031397;28;20045;-66
2022/10/01 10:15:41;;;;;;;7.50;0.80;;;16.90;99.90;;;;;;5041757;28;20122;-66
2022/10/01 10:18:15;;;;;;;4.65;0.82;;;17.10;99.90;;;;;;5043532;28;20061;-65
2022/10/01 10:20:43;;;;;;;4.85;0.98;;;17.20;99.90;;;;;;5041425;28;20047;-66
2022/10/01 10:23:15;;;;;;;6.68;1.00;;;17.10;99.90;;;;;;5038645;28;20051;-65
2022/10/01 10:25:42;;;;;;;8.20;0.88;;;17.00;99.90;;;;;;5042793;28;20497;-65
2022/10/01 10:28:19;;;;;;;4.78;0.90;;;17.00;99.90;;;;;;5043343;28;20057;-65
2022/10/01 10:30:46;;;;;;;5.03;0.85;;;17.00;99.90;;;;;;5039585;28;20079;-65
2022/10/01 10:33:13;;;;;;;6.13;0.90;;;17.00;99.90;;;;;;5038342;28;20140;-66
2022/10/01 10:35:40;;;;;;;9.57;0.90;;;16.90;99.90;;;;;;5042336;28;20076;-65
2022/10/01 10:38:16;;;;;;;6.95;1.30;;;16.60;99.90;;;;;;5040876;28;20136;-66
2022/10/01 10:40:44;;;;;;;10.32;1.60;;;16.40;99.90;;;;;;5040942;28;20041;-67
2022/10/01 10:43:22;;;;;;;7.97;1.08;;;16.10;99.90;;;;;;5044143;28;20052;-67
2022/10/01 10:45:55;;;;;;;8.77;0.80;;;15.90;99.90;;;;;;5036409;28;20041;-68
2022/10/01 10:48:23;;;;;;;9.07;1.23;;;15.60;99.90;;;;;;5039005;28;20049;-68
2022/10/01 10:50:49;;;;;;;5.53;1.00;;;15.20;99.90;;;;;;5042002;28;20040;-69
2022/10/01 10:53:20;;;;;;;6.35;0.82;;;14.90;99.90;;;;;;5040051;28;20422;-68
2022/10/01 10:55:54;;;;;;;4.72;0.70;;;14.60;99.90;;;;;;5035951;28;20076;-68
2022/10/01 10:58:24;;;;;;;3.20;0.40;;;14.30;99.90;;;;;;5034396;28;20041;-69
2022/10/01 11:00:51;;;;;;;3.33;0.40;;;14.10;99.90;;;;;;5026553;28;20203;-68
2022/10/01 11:03:21;;;;;;;3.20;0.43;;;13.80;99.90;;;;;;5033953;28;20057;-68
2022/10/01 11:05:50;;;;;;;6.07;0.47;;;13.70;99.90;;;;;;5032750;28;20126;-67
2022/10/01 11:08:26;;;;;;;7.30;0.63;;;13.70;99.90;;;;;;5039762;28;20405;-66
2022/10/01 11:11:11;;;;;;;8.32;0.85;;;13.60;99.90;;;;;;5040147;28;20116;-67
2022/10/01 11:13:38;;;;;;;8.98;0.90;;;13.70;99.90;;;;;;5035767;28;20099;-66
2022/10/01 11:16:34;;;;;;;6.50;0.90;;;13.80;99.90;;;;;;5036866;28;20107;-66
2022/10/01 11:19:26;;;;;;;6.35;0.82;;;13.80;99.90;;;;;;5042736;28;20090;-66
2022/10/01 11:22:13;;;;;;;8.07;1.10;;;13.90;99.90;;;;;;5040695;28;20120;-67
2022/10/01 11:25:03;;;;;;;6.47;0.68;;;13.90;99.90;;;;;;5041152;28;20520;-66
2022/10/01 11:27:51;;;;;;;7.32;0.90;;;14.00;99.90;;;;;;5041573;28;20515;-66
2022/10/01 11:30:23;;;;;;;6.57;1.00;;;14.20;99.90;;;;;;5038404;28;20470;-66
2022/10/01 11:33:20;;;;;;;9.85;1.00;;;14.70;99.90;;;;;;5041001;28;20045;-66
2022/10/01 11:36:05;;;;;;;4.53;0.93;;;15.50;99.90;;;;;;5042278;28;20041;-66
2022/10/01 11:38:37;;;;;;;5.80;0.70;;;17.00;99.90;;;;;;5040596;28;20029;-66
2022/10/01 11:41:17;;;;;;;5.32;0.68;;;17.90;99.90;;;;;;5040818;28;20045;-66
2022/10/01 11:44:01;;;;;;;6.20;1.20;;;18.90;99.90;;;;;;5041064;28;20034;-66
2022/10/01 11:46:31;;;;;;;6.75;1.35;;;19.60;99.90;;;;;;5039327;28;20040;-66
2022/10/01 11:49:23;;;;;;;7.25;1.00;;;20.20;99.90;;;;;;5043806;28;20052;-66
2022/10/01 11:51:59;;;;;;;9.05;1.20;;;20.40;99.90;;;;;;5025008;28;20045;-66
2022/10/01 11:54:28;;;;;;;5.82;0.90;;;21.00;99.90;;;;;;5041768;28;20107;-66
2022/10/01 11:59:52;;;;;;;6.40;1.23;;;21.80;99.90;;;;;;5045410;28;20048;-66
2022/10/01 12:02:32;;;;;;;6.50;0.98;;;21.90;99.90;;;;;;5039071;28;20037;-67
2022/10/01 12:05:03;;;;;;;8.50;1.42;;;22.10;99.90;;;;;;5046759;28;20045;-67
2022/10/01 12:07:43;;;;;;;6.85;1.77;;;22.40;99.90;;;;;;5039368;28;20091;-67
2022/10/01 12:10:30;;;;;;;7.50;1.80;;;22.60;99.90;;;;;;5043863;28;20042;-67
2022/10/01 12:13:14;;;;;;;8.48;1.25;;;22.50;99.90;;;;;;5044113;28;20064;-67
2022/10/01 12:15:43;;;;;;;;;;;21.20;99.90;;;;;;5045686;28;20041;-67
2022/10/01 12:18:16;;;;;;;11.65;1.70;;;20.00;99.90;;;;;;5040064;28;19999;-67
2022/10/01 12:20:49;;;;;;;10.82;1.58;;;18.90;99.90;;;;;;5043141;28;20087;-67
2022/10/01 12:23:40;;;;;;;10.88;1.65;;;17.90;99.90;;;;;;5026751;28;20055;-67
2022/10/01 12:26:26;;;;;;;13.88;1.80;;;17.20;99.90;;;;;;5031427;28;20151;-66
2022/10/01 12:29:18;;;;;;;17.42;2.63;;;16.60;99.90;;;;;;5046664;28;20037;-67
2022/10/01 12:31:53;;;;;;;13.00;1.90;;;16.10;99.90;;;;;;5036774;28;20049;-66
2022/10/01 12:34:31;;;;;;;10.65;1.70;;;15.80;99.90;;;;;;5045014;28;20094;-66
2022/10/01 12:37:18;;;;;;;11.50;1.40;;;15.50;99.90;;;;;;5039689;28;20123;-66
2022/10/01 12:39:52;;;;;;;10.80;1.95;;;15.40;99.90;;;;;;5035312;28;20116;-66
2022/10/01 12:42:30;;;;;;;12.25;1.85;;;15.30;99.90;;;;;;5041743;28;20076;-66
2022/10/01 12:45:20;;;;;;;16.65;2.45;;;15.30;99.90;;;;;;5045713;28;20033;-66
2022/10/01 12:48:18;;;;;;;12.90;1.55;;;15.20;99.90;;;;;;5040222;28;20037;-67
2022/10/01 12:50:59;;;;;;;9.77;1.40;;;15.10;99.90;;;;;;5038727;28;20044;-66
2022/10/01 12:53:44;;;;;;;9.38;1.60;;;15.10;99.90;;;;;;5040818;28;20496;-67
2022/10/01 12:56:16;;;;;;;15.68;2.10;;;15.10;99.90;;;;;;5046904;28;20045;-67
2022/10/01 12:59:14;;;;;;;10.52;1.40;;;15.20;99.90;;;;;;5040600;28;20520;-67
2022/10/01 13:01:46;;;;;;;13.60;1.80;;;15.20;99.90;;;;;;5041396;28;20079;-66
2022/10/01 13:04:37;;;;;;;11.80;1.10;;;15.10;99.90;;;;;;5039652;28;20076;-66
2022/10/01 13:07:15;;;;;;;9.88;2.03;;;15.00;99.90;;;;;;5040506;28;20048;-67
2022/10/01 13:10:04;;;;;;;11.63;2.00;;;14.90;99.90;;;;;;5037637;28;20103;-66